sensor_id;sensor_type;location;lat;lon;timestamp;pressure;altitude;pressure_sealevel;temperature;humidity
15678;BME280;7939;50.814;6.368;2023-05-12T00:00:38;99793.78;;;17.19;66.12
15678;BME280;7939;50.814;6.368;2023-05-12T00:03:05;99798.97;;;17.19;66.08
15678;BME280;7939;50.814;6.368;2023-05-12T00:05:32;99793.84;;;17.17;65.45
15678;BME280;7939;50.814;6.368;2023-05-12T00:08:00;99794.69;;;17.18;65.83
15678;BME280;7939;50.814;6.368;2023-05-12T00:10:27;99791.25;;;17.17;65.97
15678;BME280;7939;50.814;6.368;2023-05-12T00:12:53;99793.84;;;17.17;65.89
15678;BME280;7939;50.814;6.368;2023-05-12T00:15:20;99790.41;;;17.17;65.72
15678;BME280;7939;50.814;6.368;2023-05-12T00:17:47;99788.69;;;17.16;65.71
15678;BME280;7939;50.814;6.368;2023-05-12T00:20:13;99784.41;;;17.16;65.66
15678;BME280;7939;50.814;6.368;2023-05-12T00:22:40;99780.94;;;17.16;65.97
15678;BME280;7939;50.814;6.368;2023-05-12T00:25:08;99785.28;;;17.15;65.56
15678;BME280;7939;50.814;6.368;2023-05-12T00:27:35;99780.09;;;17.15;66.05
15678;BME280;7939;50.814;6.368;2023-05-12T00:30:01;99782.72;;;17.14;65.81
15678;BME280;7939;50.814;6.368;2023-05-12T00:32:28;99785.31;;;17.14;65.59
15678;BME280;7939;50.814;6.368;2023-05-12T00:34:55;99787.06;;;17.13;65.55
15678;BME280;7939;50.814;6.368;2023-05-12T00:37:22;99783.69;;;17.11;65.47
15678;BME280;7939;50.814;6.368;2023-05-12T00:39:49;99784.53;;;17.12;65.94
15678;BME280;7939;50.814;6.368;2023-05-12T00:42:16;99780.25;;;17.11;66.09
15678;BME280;7939;50.814;6.368;2023-05-12T00:44:43;99775.94;;;17.11;65.76
15678;BME280;7939;50.814;6.368;2023-05-12T00:47:10;99775.09;;;17.11;65.73
15678;BME280;7939;50.814;6.368;2023-05-12T00:49:37;99772.53;;;17.09;65.88
15678;BME280;7939;50.814;6.368;2023-05-12T00:52:07;99770.81;;;17.10;65.92
15678;BME280;7939;50.814;6.368;2023-05-12T00:54:34;99766.50;;;17.10;65.60
15678;BME280;7939;50.814;6.368;2023-05-12T00:57:01;99763.09;;;17.08;66.05
15678;BME280;7939;50.814;6.368;2023-05-12T00:59:29;99766.50;;;17.09;65.68
15678;BME280;7939;50.814;6.368;2023-05-12T01:01:56;99765.66;;;17.10;65.70
15678;BME280;7939;50.814;6.368;2023-05-12T01:04:25;99762.19;;;17.09;65.60
15678;BME280;7939;50.814;6.368;2023-05-12T01:06:55;99755.34;;;17.08;66.16
15678;BME280;7939;50.814;6.368;2023-05-12T01:09:23;99763.09;;;17.08;66.05
15678;BME280;7939;50.814;6.368;2023-05-12T01:11:50;99754.50;;;17.08;65.75
15678;BME280;7939;50.814;6.368;2023-05-12T01:14:17;99747.59;;;17.08;65.83
15678;BME280;7939;50.814;6.368;2023-05-12T01:16:48;99744.22;;;17.06;66.55
15678;BME280;7939;50.814;6.368;2023-05-12T01:19:25;99744.22;;;17.06;66.27
15678;BME280;7939;50.814;6.368;2023-05-12T01:21:56;99746.84;;;17.05;65.77
15678;BME280;7939;50.814;6.368;2023-05-12T01:24:26;99742.53;;;17.05;66.33
15678;BME280;7939;50.814;6.368;2023-05-12T01:26:57;99749.38;;;17.06;66.19
15678;BME280;7939;50.814;6.368;2023-05-12T01:29:24;99744.22;;;17.06;65.95
15678;BME280;7939;50.814;6.368;2023-05-12T01:31:51;99746.00;;;17.04;65.87
15678;BME280;7939;50.814;6.368;2023-05-12T01:34:19;99737.38;;;17.05;66.59
15678;BME280;7939;50.814;6.368;2023-05-12T01:36:45;99741.69;;;17.05;66.29
15678;BME280;7939;50.814;6.368;2023-05-12T01:39:12;99737.41;;;17.04;66.41
15678;BME280;7939;50.814;6.368;2023-05-12T01:41:39;99742.56;;;17.04;65.98
15678;BME280;7939;50.814;6.368;2023-05-12T01:44:07;99736.53;;;17.03;66.61
15678;BME280;7939;50.814;6.368;2023-05-12T01:46:34;99735.69;;;17.04;65.99
15678;BME280;7939;50.814;6.368;2023-05-12T01:49:00;99731.38;;;17.03;66.27
15678;BME280;7939;50.814;6.368;2023-05-12T01:51:27;99737.41;;;17.04;65.93
15678;BME280;7939;50.814;6.368;2023-05-12T01:53:54;99737.41;;;17.04;66.08
15678;BME280;7939;50.814;6.368;2023-05-12T01:56:21;99727.09;;;17.02;66.53
15678;BME280;7939;50.814;6.368;2023-05-12T01:58:47;99727.94;;;17.03;66.06
15678;BME280;7939;50.814;6.368;2023-05-12T02:01:15;99731.44;;;17.02;66.37
15678;BME280;7939;50.814;6.368;2023-05-12T02:03:42;99734.84;;;17.02;66.22
15678;BME280;7939;50.814;6.368;2023-05-12T02:06:09;99730.53;;;17.03;66.42
15678;BME280;7939;50.814;6.368;2023-05-12T02:08:35;99729.69;;;17.02;66.57
15678;BME280;7939;50.814;6.368;2023-05-12T02:11:05;99724.53;;;17.02;66.15
15678;BME280;7939;50.814;6.368;2023-05-12T02:13:32;99721.94;;;17.02;66.24
15678;BME280;7939;50.814;6.368;2023-05-12T02:15:59;99715.09;;;17.01;66.66
15678;BME280;7939;50.814;6.368;2023-05-12T02:18:27;99715.09;;;17.01;66.43
15678;BME280;7939;50.814;6.368;2023-05-12T02:20:53;99709.97;;;16.99;66.24
15678;BME280;7939;50.814;6.368;2023-05-12T02:23:20;99704.75;;;17.01;66.51
15678;BME280;7939;50.814;6.368;2023-05-12T02:25:48;99704.75;;;17.01;66.27
15678;BME280;7939;50.814;6.368;2023-05-12T02:28:15;99707.41;;;16.99;66.36
15678;BME280;7939;50.814;6.368;2023-05-12T02:30:44;99705.66;;;17.00;66.59
15678;BME280;7939;50.814;6.368;2023-05-12T02:33:11;99695.34;;;17.00;66.15
15678;BME280;7939;50.814;6.368;2023-05-12T02:35:39;99696.22;;;16.99;66.46
15678;BME280;7939;50.814;6.368;2023-05-12T02:38:06;99688.53;;;16.97;66.96
15678;BME280;7939;50.814;6.368;2023-05-12T02:40:32;99687.63;;;16.98;66.85
15678;BME280;7939;50.814;6.368;2023-05-12T02:42:59;99683.31;;;16.99;66.29
15678;BME280;7939;50.814;6.368;2023-05-12T02:45:26;99675.63;;;16.97;66.50
15678;BME280;7939;50.814;6.368;2023-05-12T02:47:54;99676.47;;;16.98;66.29
15678;BME280;7939;50.814;6.368;2023-05-12T02:50:21;99662.72;;;16.97;66.66
15678;BME280;7939;50.814;6.368;2023-05-12T02:52:49;99659.25;;;16.97;66.57
15678;BME280;7939;50.814;6.368;2023-05-12T02:55:16;99668.72;;;16.98;66.46
15678;BME280;7939;50.814;6.368;2023-05-12T02:57:43;99660.16;;;16.96;66.85
15678;BME280;7939;50.814;6.368;2023-05-12T03:00:11;99661.00;;;16.96;66.29
15678;BME280;7939;50.814;6.368;2023-05-12T03:02:38;99654.16;;;16.95;66.65
15678;BME280;7939;50.814;6.368;2023-05-12T03:05:06;99658.50;;;16.93;67.03
15678;BME280;7939;50.814;6.368;2023-05-12T03:07:33;99664.47;;;16.95;66.85
15678;BME280;7939;50.814;6.368;2023-05-12T03:10:01;99671.41;;;16.93;66.96
15678;BME280;7939;50.814;6.368;2023-05-12T03:12:28;99663.69;;;16.93;67.03
15678;BME280;7939;50.814;6.368;2023-05-12T03:14:55;99666.22;;;16.95;66.81
15678;BME280;7939;50.814;6.368;2023-05-12T03:17:22;99663.69;;;16.93;67.10
15678;BME280;7939;50.814;6.368;2023-05-12T03:19:48;99669.69;;;16.94;66.40
15678;BME280;7939;50.814;6.368;2023-05-12T03:22:15;99671.41;;;16.93;66.66
15678;BME280;7939;50.814;6.368;2023-05-12T03:24:42;99674.00;;;16.93;66.65
15678;BME280;7939;50.814;6.368;2023-05-12T03:27:11;99670.56;;;16.93;66.52
15678;BME280;7939;50.814;6.368;2023-05-12T03:29:37;99670.56;;;16.93;66.68
15678;BME280;7939;50.814;6.368;2023-05-12T03:32:05;99680.00;;;16.94;66.75
15678;BME280;7939;50.814;6.368;2023-05-12T03:34:31;99680.09;;;16.91;66.66
15678;BME280;7939;50.814;6.368;2023-05-12T03:36:58;99680.06;;;16.92;66.94
15678;BME280;7939;50.814;6.368;2023-05-12T03:39:25;99679.22;;;16.92;67.01
15678;BME280;7939;50.814;6.368;2023-05-12T03:41:52;99674.91;;;16.92;66.56
15678;BME280;7939;50.814;6.368;2023-05-12T03:44:20;99674.91;;;16.92;67.01
15678;BME280;7939;50.814;6.368;2023-05-12T03:46:47;99679.22;;;16.92;67.16
15678;BME280;7939;50.814;6.368;2023-05-12T03:49:14;99676.63;;;16.92;66.68
15678;BME280;7939;50.814;6.368;2023-05-12T03:51:41;99677.53;;;16.91;67.00
15678;BME280;7939;50.814;6.368;2023-05-12T03:54:08;99681.81;;;16.90;66.72
15678;BME280;7939;50.814;6.368;2023-05-12T03:56:34;99674.06;;;16.90;66.82
15678;BME280;7939;50.814;6.368;2023-05-12T03:59:01;99675.78;;;16.91;67.16
15678;BME280;7939;50.814;6.368;2023-05-12T04:01:29;99669.72;;;16.92;67.06
15678;BME280;7939;50.814;6.368;2023-05-12T04:03:56;99677.53;;;16.91;67.36
15678;BME280;7939;50.814;6.368;2023-05-12T04:06:23;99671.50;;;16.90;66.93
15678;BME280;7939;50.814;6.368;2023-05-12T04:08:49;99676.66;;;16.90;67.18
15678;BME280;7939;50.814;6.368;2023-05-12T04:11:16;99677.53;;;16.91;67.17
15678;BME280;7939;50.814;6.368;2023-05-12T04:13:43;99674.06;;;16.90;67.27
15678;BME280;7939;50.814;6.368;2023-05-12T04:16:10;99677.53;;;16.89;66.96
15678;BME280;7939;50.814;6.368;2023-05-12T04:18:38;99680.13;;;16.89;67.03
15678;BME280;7939;50.814;6.368;2023-05-12T04:21:05;99680.13;;;16.89;66.79
15678;BME280;7939;50.814;6.368;2023-05-12T04:23:31;99672.44;;;16.88;66.77
15678;BME280;7939;50.814;6.368;2023-05-12T04:25:58;99682.75;;;16.88;67.30
15678;BME280;7939;50.814;6.368;2023-05-12T04:28:28;99685.34;;;16.88;66.76
15678;BME280;7939;50.814;6.368;2023-05-12T04:30:54;99678.50;;;16.87;67.13
15678;BME280;7939;50.814;6.368;2023-05-12T04:33:21;99686.19;;;16.88;66.84
15678;BME280;7939;50.814;6.368;2023-05-12T04:35:54;99687.97;;;16.86;67.15
15678;BME280;7939;50.814;6.368;2023-05-12T04:38:21;99683.69;;;16.85;66.74
15678;BME280;7939;50.814;6.368;2023-05-12T04:40:47;99690.63;;;16.83;67.13
15678;BME280;7939;50.814;6.368;2023-05-12T04:43:14;99688.88;;;16.84;67.38
15678;BME280;7939;50.814;6.368;2023-05-12T04:45:41;99694.03;;;16.85;66.87
15678;BME280;7939;50.814;6.368;2023-05-12T04:48:08;99699.19;;;16.85;66.77
15678;BME280;7939;50.814;6.368;2023-05-12T04:50:35;99701.78;;;16.85;66.88
15678;BME280;7939;50.814;6.368;2023-05-12T04:53:03;99706.03;;;16.86;67.20
15678;BME280;7939;50.814;6.368;2023-05-12T04:55:32;99703.50;;;16.85;67.22
15678;BME280;7939;50.814;6.368;2023-05-12T04:57:59;99711.25;;;16.85;67.02
15678;BME280;7939;50.814;6.368;2023-05-12T05:00:25;99711.25;;;16.85;66.81
15678;BME280;7939;50.814;6.368;2023-05-12T05:02:53;99716.41;;;16.85;67.26
15678;BME280;7939;50.814;6.368;2023-05-12T05:05:20;99715.53;;;16.84;67.04
15678;BME280;7939;50.814;6.368;2023-05-12T05:07:46;99721.59;;;16.83;66.91
15678;BME280;7939;50.814;6.368;2023-05-12T05:10:14;99721.59;;;16.83;67.58
15678;BME280;7939;50.814;6.368;2023-05-12T05:12:41;99720.75;;;16.83;67.34
15678;BME280;7939;50.814;6.368;2023-05-12T05:15:08;99719.06;;;16.82;67.42
15678;BME280;7939;50.814;6.368;2023-05-12T05:17:35;99720.75;;;16.83;67.53
15678;BME280;7939;50.814;6.368;2023-05-12T05:20:03;99720.69;;;16.84;67.43
15678;BME280;7939;50.814;6.368;2023-05-12T05:22:30;99730.19;;;16.84;67.51
15678;BME280;7939;50.814;6.368;2023-05-12T05:24:56;99727.66;;;16.82;67.49
15678;BME280;7939;50.814;6.368;2023-05-12T05:27:25;99726.78;;;16.82;67.36
15678;BME280;7939;50.814;6.368;2023-05-12T05:29:52;99724.25;;;16.80;67.28
15678;BME280;7939;50.814;6.368;2023-05-12T05:32:18;99725.94;;;16.81;66.96
15678;BME280;7939;50.814;6.368;2023-05-12T05:34:45;99727.66;;;16.82;67.47
15678;BME280;7939;50.814;6.368;2023-05-12T05:37:12;99724.25;;;16.80;67.46
15678;BME280;7939;50.814;6.368;2023-05-12T05:39:39;99726.78;;;16.82;67.28
15678;BME280;7939;50.814;6.368;2023-05-12T05:42:06;99730.28;;;16.81;67.72
15678;BME280;7939;50.814;6.368;2023-05-12T05:44:34;99732.00;;;16.80;67.45
15678;BME280;7939;50.814;6.368;2023-05-12T05:47:01;99739.66;;;16.83;67.48
15678;BME280;7939;50.814;6.368;2023-05-12T05:49:28;99743.97;;;16.83;67.60
15678;BME280;7939;50.814;6.368;2023-05-12T05:51:54;99737.97;;;16.82;67.12
15678;BME280;7939;50.814;6.368;2023-05-12T05:54:22;99750.03;;;16.82;67.50
15678;BME280;7939;50.814;6.368;2023-05-12T05:56:49;99745.75;;;16.81;67.12
15678;BME280;7939;50.814;6.368;2023-05-12T05:59:15;99752.66;;;16.80;67.69
15678;BME280;7939;50.814;6.368;2023-05-12T06:01:44;99747.59;;;16.76;67.38
15678;BME280;7939;50.814;6.368;2023-05-12T06:04:11;99752.72;;;16.77;67.26
15678;BME280;7939;50.814;6.368;2023-05-12T06:06:37;99749.25;;;16.78;67.55
15678;BME280;7939;50.814;6.368;2023-05-12T06:09:04;99763.88;;;16.78;67.83
15678;BME280;7939;50.814;6.368;2023-05-12T06:11:31;99767.31;;;16.78;67.31
15678;BME280;7939;50.814;6.368;2023-05-12T06:13:58;99767.31;;;16.78;67.53
15678;BME280;7939;50.814;6.368;2023-05-12T06:16:24;99769.94;;;16.77;67.79
15678;BME280;7939;50.814;6.368;2023-05-12T06:18:52;99768.25;;;16.76;67.91
15678;BME280;7939;50.814;6.368;2023-05-12T06:21:19;99772.53;;;16.77;67.66
15678;BME280;7939;50.814;6.368;2023-05-12T06:23:46;99775.09;;;16.77;67.41
15678;BME280;7939;50.814;6.368;2023-05-12T06:26:13;99775.09;;;16.77;67.96
15678;BME280;7939;50.814;6.368;2023-05-12T06:28:40;99779.38;;;16.78;67.46
15678;BME280;7939;50.814;6.368;2023-05-12T06:31:07;99784.56;;;16.76;67.66
15678;BME280;7939;50.814;6.368;2023-05-12T06:33:34;99788.00;;;16.77;67.95
15678;BME280;7939;50.814;6.368;2023-05-12T06:36:02;99787.16;;;16.76;67.60
15678;BME280;7939;50.814;6.368;2023-05-12T06:38:29;99776.94;;;16.73;67.80
15678;BME280;7939;50.814;6.368;2023-05-12T06:40:55;99785.47;;;16.75;67.64
15678;BME280;7939;50.814;6.368;2023-05-12T06:43:22;99783.00;;;16.70;68.33
15678;BME280;7939;50.814;6.368;2023-05-12T06:45:48;99790.75;;;16.70;68.28
15678;BME280;7939;50.814;6.368;2023-05-12T06:48:15;99790.75;;;16.69;68.13
15678;BME280;7939;50.814;6.368;2023-05-12T06:50:42;99789.06;;;16.68;68.25
15678;BME280;7939;50.814;6.368;2023-05-12T06:53:10;99790.84;;;16.64;68.54
15678;BME280;7939;50.814;6.368;2023-05-12T06:55:37;99790.84;;;16.64;68.08
15678;BME280;7939;50.814;6.368;2023-05-12T06:58:04;99796.00;;;16.66;68.08
15678;BME280;7939;50.814;6.368;2023-05-12T07:00:31;99805.38;;;16.68;68.39
15678;BME280;7939;50.814;6.368;2023-05-12T07:02:58;99796.09;;;16.61;68.45
15678;BME280;7939;50.814;6.368;2023-05-12T07:05:24;99798.63;;;16.63;68.64
15678;BME280;7939;50.814;6.368;2023-05-12T07:07:51;99802.91;;;16.64;68.27
15678;BME280;7939;50.814;6.368;2023-05-12T07:10:20;99810.66;;;16.64;68.41
15678;BME280;7939;50.814;6.368;2023-05-12T07:12:46;99801.25;;;16.61;68.70
15678;BME280;7939;50.814;6.368;2023-05-12T07:15:13;99799.63;;;16.57;68.51
15678;BME280;7939;50.814;6.368;2023-05-12T07:17:39;99803.16;;;16.55;68.44
15678;BME280;7939;50.814;6.368;2023-05-12T07:20:07;99802.25;;;16.56;68.82
15678;BME280;7939;50.814;6.368;2023-05-12T07:22:34;99803.06;;;16.58;68.34
15678;BME280;7939;50.814;6.368;2023-05-12T07:25:01;99806.56;;;16.55;68.95
15678;BME280;7939;50.814;6.368;2023-05-12T07:27:29;99810.88;;;16.55;68.59
15678;BME280;7939;50.814;6.368;2023-05-12T07:29:56;99810.78;;;16.58;68.45
15678;BME280;7939;50.814;6.368;2023-05-12T07:32:23;99803.94;;;16.57;68.44
15678;BME280;7939;50.814;6.368;2023-05-12T07:34:52;99812.53;;;16.57;68.81
15678;BME280;7939;50.814;6.368;2023-05-12T07:37:19;99814.22;;;16.58;68.75
15678;BME280;7939;50.814;6.368;2023-05-12T07:39:46;99809.91;;;16.59;68.81
15678;BME280;7939;50.814;6.368;2023-05-12T07:42:12;99815.06;;;16.60;68.65
15678;BME280;7939;50.814;6.368;2023-05-12T07:44:40;99814.22;;;16.60;68.57
15678;BME280;7939;50.814;6.368;2023-05-12T07:47:08;99811.59;;;16.61;68.28
15678;BME280;7939;50.814;6.368;2023-05-12T07:49:34;99809.91;;;16.60;68.67
15678;BME280;7939;50.814;6.368;2023-05-12T07:52:02;99815.00;;;16.62;68.76
15678;BME280;7939;50.814;6.368;2023-05-12T07:54:28;99821.03;;;16.62;68.36
15678;BME280;7939;50.814;6.368;2023-05-12T07:56:56;99813.28;;;16.62;68.38
15678;BME280;7939;50.814;6.368;2023-05-12T07:59:23;99816.78;;;16.60;68.94
15678;BME280;7939;50.814;6.368;2023-05-12T08:01:51;99821.16;;;16.56;68.97
15678;BME280;7939;50.814;6.368;2023-05-12T08:04:18;99826.38;;;16.55;69.02
15678;BME280;7939;50.814;6.368;2023-05-12T08:06:45;99828.00;;;16.57;69.04
15678;BME280;7939;50.814;6.368;2023-05-12T08:09:12;99827.13;;;16.58;68.96
15678;BME280;7939;50.814;6.368;2023-05-12T08:11:38;99830.53;;;16.60;69.00
15678;BME280;7939;50.814;6.368;2023-05-12T08:14:06;99833.13;;;16.60;69.49
15678;BME280;7939;50.814;6.368;2023-05-12T08:16:33;99840.00;;;16.60;69.36
15678;BME280;7939;50.814;6.368;2023-05-12T08:19:01;99836.53;;;16.61;69.84
15678;BME280;7939;50.814;6.368;2023-05-12T08:21:28;99843.41;;;16.62;69.50
15678;BME280;7939;50.814;6.368;2023-05-12T08:23:56;99835.59;;;16.63;69.54
15678;BME280;7939;50.814;6.368;2023-05-12T08:26:22;99844.97;;;16.67;69.11
15678;BME280;7939;50.814;6.368;2023-05-12T08:28:49;99845.03;;;16.66;69.23
15678;BME280;7939;50.814;6.368;2023-05-12T08:31:16;99847.53;;;16.69;69.45
15678;BME280;7939;50.814;6.368;2023-05-12T08:33:43;99837.16;;;16.72;69.17
15678;BME280;7939;50.814;6.368;2023-05-12T08:36:11;99848.22;;;16.77;68.93
15678;BME280;7939;50.814;6.368;2023-05-12T08:38:38;99850.69;;;16.82;68.53
15678;BME280;7939;50.814;6.368;2023-05-12T08:41:11;99848.16;;;16.80;68.55
15678;BME280;7939;50.814;6.368;2023-05-12T08:43:42;99854.97;;;16.83;68.77
15678;BME280;7939;50.814;6.368;2023-05-12T08:46:10;99854.91;;;16.86;68.61
15678;BME280;7939;50.814;6.368;2023-05-12T08:48:38;99855.75;;;16.86;68.23
15678;BME280;7939;50.814;6.368;2023-05-12T08:51:06;99857.34;;;16.92;68.82
15678;BME280;7939;50.814;6.368;2023-05-12T08:53:36;99863.28;;;16.94;68.51
15678;BME280;7939;50.814;6.368;2023-05-12T08:56:05;99864.09;;;16.96;67.96
15678;BME280;7939;50.814;6.368;2023-05-12T08:58:33;99863.28;;;16.94;68.22
15678;BME280;7939;50.814;6.368;2023-05-12T09:01:02;99867.53;;;16.96;68.23
15678;BME280;7939;50.814;6.368;2023-05-12T09:03:30;99869.09;;;17.02;68.23
15678;BME280;7939;50.814;6.368;2023-05-12T09:05:59;99870.78;;;17.05;67.93
15678;BME280;7939;50.814;6.368;2023-05-12T09:08:28;99872.53;;;17.03;67.99
15678;BME280;7939;50.814;6.368;2023-05-12T09:10:57;99874.16;;;17.07;67.98
15678;BME280;7939;50.814;6.368;2023-05-12T09:13:27;99875.00;;;17.07;67.57
15678;BME280;7939;50.814;6.368;2023-05-12T09:15:56;99876.69;;;17.10;67.35
15678;BME280;7939;50.814;6.368;2023-05-12T09:18:31;99878.31;;;17.12;67.84
15678;BME280;7939;50.814;6.368;2023-05-12T09:21:10;99874.84;;;17.13;67.46
15678;BME280;7939;50.814;6.368;2023-05-12T09:23:37;99879.09;;;17.16;67.34
15678;BME280;7939;50.814;6.368;2023-05-12T09:26:05;99885.88;;;17.20;67.29
15678;BME280;7939;50.814;6.368;2023-05-12T09:28:36;99874.53;;;17.25;67.37
15678;BME280;7939;50.814;6.368;2023-05-12T09:31:14;99882.38;;;17.22;67.29
15678;BME280;7939;50.814;6.368;2023-05-12T09:33:41;99891.72;;;17.26;67.40
15678;BME280;7939;50.814;6.368;2023-05-12T09:36:07;99892.56;;;17.29;66.86
15678;BME280;7939;50.814;6.368;2023-05-12T09:38:34;99899.28;;;17.34;66.72
15678;BME280;7939;50.814;6.368;2023-05-12T09:41:01;99891.53;;;17.34;67.06
15678;BME280;7939;50.814;6.368;2023-05-12T09:43:29;99892.50;;;17.30;66.60
15678;BME280;7939;50.814;6.368;2023-05-12T09:45:56;99890.66;;;17.35;66.42
15678;BME280;7939;50.814;6.368;2023-05-12T09:48:23;99897.44;;;17.39;66.91
15678;BME280;7939;50.814;6.368;2023-05-12T09:50:50;99894.78;;;17.42;66.75
15678;BME280;7939;50.814;6.368;2023-05-12T09:53:18;99898.16;;;17.44;66.58
15678;BME280;7939;50.814;6.368;2023-05-12T09:55:47;99902.31;;;17.50;66.14
15678;BME280;7939;50.814;6.368;2023-05-12T09:58:15;99904.78;;;17.55;66.36
15678;BME280;7939;50.814;6.368;2023-05-12T10:00:44;99903.81;;;17.59;66.23
15678;BME280;7939;50.814;6.368;2023-05-12T10:03:13;99899.47;;;17.61;65.91
15678;BME280;7939;50.814;6.368;2023-05-12T10:05:45;99896.84;;;17.62;65.93
15678;BME280;7939;50.814;6.368;2023-05-12T10:08:24;99904.38;;;17.70;65.58
15678;BME280;7939;50.814;6.368;2023-05-12T10:10:51;99899.16;;;17.73;65.78
15678;BME280;7939;50.814;6.368;2023-05-12T10:13:19;99910.19;;;17.78;65.25
15678;BME280;7939;50.814;6.368;2023-05-12T10:15:48;99909.25;;;17.82;65.64
15678;BME280;7939;50.814;6.368;2023-05-12T10:18:17;99902.31;;;17.83;65.60
15678;BME280;7939;50.814;6.368;2023-05-12T10:20:45;99910.88;;;17.86;65.69
15678;BME280;7939;50.814;6.368;2023-05-12T10:23:13;99911.66;;;17.88;65.36
15678;BME280;7939;50.814;6.368;2023-05-12T10:25:43;99907.28;;;17.90;65.55
15678;BME280;7939;50.814;6.368;2023-05-12T10:28:10;99907.22;;;17.93;64.94
15678;BME280;7939;50.814;6.368;2023-05-12T10:30:38;99904.50;;;17.98;64.65
15678;BME280;7939;50.814;6.368;2023-05-12T10:33:07;99912.09;;;18.02;64.61
15678;BME280;7939;50.814;6.368;2023-05-12T10:35:36;99911.03;;;18.10;64.63
15678;BME280;7939;50.814;6.368;2023-05-12T10:38:08;99909.13;;;18.16;64.25
15678;BME280;7939;50.814;6.368;2023-05-12T10:40:35;99913.25;;;18.23;64.53
15678;BME280;7939;50.814;6.368;2023-05-12T10:43:02;99908.91;;;18.24;63.78
15678;BME280;7939;50.814;6.368;2023-05-12T10:45:34;99912.31;;;18.26;63.66
15678;BME280;7939;50.814;6.368;2023-05-12T10:48:06;99916.50;;;18.30;63.60
15678;BME280;7939;50.814;6.368;2023-05-12T10:50:34;99913.72;;;18.36;63.67
15678;BME280;7939;50.814;6.368;2023-05-12T10:53:00;99906.75;;;18.38;63.53
15678;BME280;7939;50.814;6.368;2023-05-12T10:55:32;99902.31;;;18.43;62.75
15678;BME280;7939;50.814;6.368;2023-05-12T10:58:04;99906.44;;;18.49;63.47
15678;BME280;7939;50.814;6.368;2023-05-12T11:00:42;99908.00;;;18.54;62.77
15678;BME280;7939;50.814;6.368;2023-05-12T11:03:13;99908.88;;;18.53;62.61
15678;BME280;7939;50.814;6.368;2023-05-12T11:05:41;99914.06;;;18.53;62.75
15678;BME280;7939;50.814;6.368;2023-05-12T11:08:08;99909.66;;;18.57;62.65
15678;BME280;7939;50.814;6.368;2023-05-12T11:10:35;99914.81;;;18.57;62.16
15678;BME280;7939;50.814;6.368;2023-05-12T11:13:02;99920.91;;;18.56;62.30
15678;BME280;7939;50.814;6.368;2023-05-12T11:15:29;99907.09;;;18.55;62.13
15678;BME280;7939;50.814;6.368;2023-05-12T11:17:56;99919.94;;;18.58;62.03
15678;BME280;7939;50.814;6.368;2023-05-12T11:20:25;99909.69;;;18.55;61.73
15678;BME280;7939;50.814;6.368;2023-05-12T11:22:52;99919.94;;;18.58;61.73
15678;BME280;7939;50.814;6.368;2023-05-12T11:25:19;99915.59;;;18.60;61.83
15678;BME280;7939;50.814;6.368;2023-05-12T11:27:47;99917.16;;;18.65;61.24
15678;BME280;7939;50.814;6.368;2023-05-12T11:30:14;99924.88;;;18.66;61.43
15678;BME280;7939;50.814;6.368;2023-05-12T11:32:41;99923.03;;;18.71;60.83
15678;BME280;7939;50.814;6.368;2023-05-12T11:35:13;99929.88;;;18.74;60.80
15678;BME280;7939;50.814;6.368;2023-05-12T11:37:43;99933.31;;;18.74;60.69
15678;BME280;7939;50.814;6.368;2023-05-12T11:40:14;99930.66;;;18.76;60.56
15678;BME280;7939;50.814;6.368;2023-05-12T11:42:41;99936.44;;;18.84;60.32
15678;BME280;7939;50.814;6.368;2023-05-12T11:45:23;99927.81;;;18.83;59.92
15678;BME280;7939;50.814;6.368;2023-05-12T11:47:51;99935.53;;;18.85;59.72
15678;BME280;7939;50.814;6.368;2023-05-12T11:50:22;99942.38;;;18.88;59.76
15678;BME280;7939;50.814;6.368;2023-05-12T11:52:51;99939.03;;;18.84;60.19
15678;BME280;7939;50.814;6.368;2023-05-12T11:55:20;99936.44;;;18.84;59.67
15678;BME280;7939;50.814;6.368;2023-05-12T11:57:55;99928.72;;;18.82;59.43
15678;BME280;7939;50.814;6.368;2023-05-12T12:00:28;99936.38;;;18.87;59.41
15678;BME280;7939;50.814;6.368;2023-05-12T12:03:09;99945.03;;;18.86;59.46
15678;BME280;7939;50.814;6.368;2023-05-12T12:05:37;99935.34;;;18.91;59.13
15678;BME280;7939;50.814;6.368;2023-05-12T12:08:10;99950.00;;;18.92;59.11
15678;BME280;7939;50.814;6.368;2023-05-12T12:10:38;99955.22;;;18.91;59.23
15678;BME280;7939;50.814;6.368;2023-05-12T12:13:05;99953.53;;;18.90;59.18
15678;BME280;7939;50.814;6.368;2023-05-12T12:15:32;99953.53;;;18.90;58.01
15678;BME280;7939;50.814;6.368;2023-05-12T12:17:58;99957.88;;;18.89;57.20
15678;BME280;7939;50.814;6.368;2023-05-12T12:20:25;99958.56;;;18.94;56.98
15678;BME280;7939;50.814;6.368;2023-05-12T12:22:52;99956.63;;;19.01;56.55
15678;BME280;7939;50.814;6.368;2023-05-12T12:25:21;99965.13;;;19.04;56.53
15678;BME280;7939;50.814;6.368;2023-05-12T12:27:48;99956.44;;;19.07;56.24
15678;BME280;7939;50.814;6.368;2023-05-12T12:30:15;99968.41;;;19.11;56.17
15678;BME280;7939;50.814;6.368;2023-05-12T12:32:43;99960.59;;;19.12;56.53
15678;BME280;7939;50.814;6.368;2023-05-12T12:35:10;99960.31;;;19.20;56.27
15678;BME280;7939;50.814;6.368;2023-05-12T12:37:38;99964.53;;;19.24;56.02
15678;BME280;7939;50.814;6.368;2023-05-12T12:40:05;99975.72;;;19.25;55.78
15678;BME280;7939;50.814;6.368;2023-05-12T12:42:37;99977.28;;;19.30;55.33
15678;BME280;7939;50.814;6.368;2023-05-12T12:45:06;99976.38;;;19.31;54.91
15678;BME280;7939;50.814;6.368;2023-05-12T12:47:34;99974.72;;;19.29;55.67
15678;BME280;7939;50.814;6.368;2023-05-12T12:50:01;99986.81;;;19.30;56.05
15678;BME280;7939;50.814;6.368;2023-05-12T12:52:27;99980.72;;;19.31;55.66
15678;BME280;7939;50.814;6.368;2023-05-12T12:54:54;99983.25;;;19.32;55.71
15678;BME280;7939;50.814;6.368;2023-05-12T12:57:21;99980.59;;;19.34;55.83
15678;BME280;7939;50.814;6.368;2023-05-12T12:59:49;99979.69;;;19.35;56.03
15678;BME280;7939;50.814;6.368;2023-05-12T13:02:16;99984.00;;;19.36;55.24
15678;BME280;7939;50.814;6.368;2023-05-12T13:04:43;99978.78;;;19.37;55.85
15678;BME280;7939;50.814;6.368;2023-05-12T13:07:09;99979.63;;;19.38;55.41
15678;BME280;7939;50.814;6.368;2023-05-12T13:09:36;99980.31;;;19.43;55.43
15678;BME280;7939;50.814;6.368;2023-05-12T13:12:04;99975.97;;;19.44;55.87